Time;durP1;ratioP1;P1;durP2;ratioP2;P2;SDS_P1;SDS_P2;PMS_P1;PMS_P2;Temp;Humidity;BMP_temperature;BMP_pressure;BME280_temperature;BME280_humidity;BME280_pressure;Samples;Min_cycle;Max_cycle;Signal;HPM_P1;HPM_P2
2022/02/11 00:05:51;;;;;;;29.63;18.02;;;;;;;3.04;99.45;99568.94;1702175;84;21005;-72
2022/02/11 00:07:47;;;;;;;31.62;18.75;;;;;;;3.06;99.52;99570.56;1698326;84;21119;-65
2022/02/11 00:10:15;;;;;;;37.48;19.27;;;;;;;3.06;99.59;99568.66;1702086;84;21437;-72
2022/02/11 00:12:45;;;;;;;38.13;20.20;;;;;;;3.04;99.56;99567.58;1701948;84;20989;-73
2022/02/11 00:15:36;;;;;;;33.55;20.08;;;;;;;3.05;99.59;99564.31;1701865;84;20989;-72
2022/02/11 00:17:50;;;;;;;37.03;19.87;;;;;;;3.06;99.58;99560.50;1699142;84;21028;-73
2022/02/11 00:20:17;;;;;;;37.90;21.57;;;;;;;3.08;99.57;99562.41;1701968;84;21126;-71
2022/02/11 00:22:45;;;;;;;39.48;21.20;;;;;;;3.08;99.55;99555.61;1701693;84;21418;-72
2022/02/11 00:25:12;;;;;;;33.63;18.32;;;;;;;3.08;99.52;99540.63;1701957;84;21040;-72
2022/02/11 00:28:11;;;;;;;30.62;18.02;;;;;;;3.10;99.47;99543.91;1701827;84;21013;-73
2022/02/11 00:33:10;;;;;;;29.02;17.57;;;;;;;3.12;99.55;99541.71;1701569;84;21124;-72
2022/02/11 00:35:36;;;;;;;26.90;17.55;;;;;;;3.13;99.56;99536.55;1701467;84;20964;-73
2022/02/11 00:37:58;;;;;;;27.82;16.87;;;;;;;3.15;99.49;99534.92;1701148;84;21040;-70
2022/02/11 00:41:59;;;;;;;29.48;18.45;;;;;;;3.15;99.51;99537.11;1701946;84;20997;-73
2022/02/11 00:46:05;;;;;;;24.75;16.27;;;;;;;3.18;99.43;99525.38;1701828;84;21539;-72
2022/02/11 01:02:30;;;;;;;33.05;18.25;;;;;;;3.14;99.14;99520.48;1702030;84;21422;-72
2022/02/11 01:04:36;;;;;;;30.30;19.42;;;;;;;3.14;99.03;99516.93;1695447;84;21036;-71
2022/02/11 01:07:06;;;;;;;30.45;18.65;;;;;;;3.15;98.97;99521.31;1701814;83;20969;-71
2022/02/11 01:09:34;;;;;;;31.33;19.48;;;;;;;3.14;98.87;99519.12;1702330;84;21431;-71
2022/02/11 01:12:03;;;;;;;33.90;20.10;;;;;;;3.12;98.82;99513.13;1701867;84;21579;-72
2022/02/11 01:14:52;;;;;;;31.45;19.48;;;;;;;3.15;98.79;99521.31;1701715;84;21122;-72
2022/02/11 01:18:09;;;;;;;33.80;19.60;;;;;;;3.16;98.66;99522.39;1698695;84;20882;-70
2022/02/11 01:20:40;;;;;;;31.17;19.75;;;;;;;3.16;98.49;99523.76;1681379;84;21076;-72
2022/02/11 01:28:38;;;;;;;37.83;21.25;;;;;;;3.13;98.15;99517.49;1701860;84;21025;-72
2022/02/11 01:38:27;;;;;;;31.52;18.48;;;;;;;3.07;97.66;99500.86;1701668;84;21161;-70
2022/02/11 01:52:11;;;;;;;34.10;18.80;;;;;;;3.07;97.20;99489.97;1701663;84;21092;-70
2022/02/11 01:54:45;;;;;;;33.48;18.70;;;;;;;3.07;97.13;99489.97;1651383;86;20875;-70
2022/02/11 01:59:51;;;;;;;33.55;18.77;;;;;;;3.07;96.93;99479.08;1654816;85;21026;-72
2022/02/11 02:10:50;;;;;;;32.60;17.57;;;;;;;3.05;96.30;99464.94;1655092;86;21002;-71
2022/02/11 02:25:47;;;;;;;23.10;15.43;;;;;;;3.04;95.57;99441.50;1654882;86;21009;-73
2022/02/11 02:37:07;;;;;;;;;;;;;;;;;;;;;
2022/02/11 03:00:51;;;;;;;22.82;14.45;;;;;;;3.09;93.58;99400.67;1654618;86;20963;-73
2022/02/11 03:57:51;;;;;;;21.87;14.03;;;;;;;3.02;90.98;99342.41;1657898;86;20987;-72
2022/02/11 04:28:02;;;;;;;24.87;14.40;;;;;;;2.84;90.21;99319.83;1638464;86;21027;-73
2022/02/11 04:57:03;;;;;;;32.75;16.15;;;;;;;2.78;89.86;99321.76;1654896;86;20939;-73
2022/02/11 04:59:50;;;;;;;;;;;;;;;;;;;;;
2022/02/11 05:02:07;;;;;;;30.95;16.23;;;;;;;2.74;89.83;99309.23;1648589;86;20963;-73
2022/02/11 05:04:35;;;;;;;32.65;16.70;;;;;;;2.75;89.83;99304.59;1654766;86;20923;-73
2022/02/11 05:07:04;;;;;;;29.25;15.90;;;;;;;2.76;89.83;99302.16;1654957;86;21034;-71
2022/02/11 05:09:33;;;;;;;25.75;14.63;;;;;;;2.76;89.83;99300.23;1654825;86;20863;-71
2022/02/11 05:12:04;;;;;;;28.23;16.85;;;;;;;2.78;89.84;99304.86;1654917;86;21549;-73
2022/02/11 05:14:36;;;;;;;27.35;15.75;;;;;;;2.80;89.78;99304.59;1654971;86;21008;-72
2022/02/11 05:17:04;;;;;;;29.07;16.42;;;;;;;2.80;89.64;99302.69;1653667;86;20939;-73
2022/02/11 05:19:32;;;;;;;34.73;16.90;;;;;;;2.81;89.55;99299.44;1628610;86;20994;-73
2022/02/11 05:21:59;;;;;;;30.85;16.65;;;;;;;2.82;89.48;99302.95;1655307;86;21507;-73
2022/02/11 05:24:27;;;;;;;26.07;16.70;;;;;;;2.82;89.44;99303.78;1654810;85;21544;-72
2022/02/11 05:26:54;;;;;;;25.82;15.75;;;;;;;2.84;89.41;99300.78;1654657;86;21425;-73
2022/02/11 05:29:20;;;;;;;29.07;16.00;;;;;;;2.84;89.32;99304.33;1654777;86;21059;-73
2022/02/11 05:31:50;;;;;;;29.72;15.78;;;;;;;2.86;89.16;99300.80;1654728;85;20983;-73
2022/02/11 05:34:18;;;;;;;25.80;16.25;;;;;;;2.88;89.05;99299.16;1654742;86;21118;-72
2022/02/11 05:36:45;;;;;;;25.92;15.72;;;;;;;2.87;88.98;99303.77;1654815;86;21456;-74
2022/02/11 05:39:11;;;;;;;27.37;15.48;;;;;;;2.89;88.90;99305.69;1628128;86;20955;-73
2022/02/11 05:41:38;;;;;;;28.92;15.32;;;;;;;2.91;88.88;99302.15;1654608;85;20943;-71
2022/02/11 05:44:05;;;;;;;24.87;14.90;;;;;;;2.95;88.76;99301.59;1654886;86;20934;-73
2022/02/11 05:46:32;;;;;;;28.73;16.50;;;;;;;3.00;88.54;99304.31;1628464;86;20970;-74
2022/02/11 05:49:01;;;;;;;24.57;14.80;;;;;;;3.02;88.36;99300.20;1655080;86;21184;-73
2022/02/11 05:51:30;;;;;;;23.40;13.70;;;;;;;3.03;88.22;99300.50;1655296;86;21038;-74
2022/02/11 05:53:58;;;;;;;22.22;14.05;;;;;;;3.02;88.11;99306.22;1654886;86;21007;-71
2022/02/11 05:56:28;;;;;;;23.90;15.10;;;;;;;3.03;87.97;99299.14;1655080;86;20935;-72
2022/02/11 05:58:54;;;;;;;25.35;14.25;;;;;;;3.03;87.84;99299.14;1654908;85;20963;-73
2022/02/11 06:01:22;;;;;;;21.68;13.75;;;;;;;3.05;87.77;99301.58;1654828;86;21053;-72
2022/02/11 06:03:50;;;;;;;26.55;15.70;;;;;;;3.07;87.61;99308.91;1654853;85;21003;-71
2022/02/11 06:06:18;;;;;;;30.40;16.87;;;;;;;3.08;87.52;99301.03;1654786;86;21519;-72
2022/02/11 06:08:50;;;;;;;26.25;16.23;;;;;;;3.09;87.41;99302.65;1654695;86;20995;-73
2022/02/11 06:11:22;;;;;;;27.17;16.55;;;;;;;3.10;87.28;99302.94;1630039;86;21507;-72
2022/02/11 06:13:51;;;;;;;27.85;15.98;;;;;;;3.12;87.20;99304.81;1654775;86;21019;-72
2022/02/11 06:16:19;;;;;;;26.93;16.30;;;;;;;3.14;87.09;99299.09;1654722;86;21019;-74
2022/02/11 06:18:45;;;;;;;28.57;15.13;;;;;;;3.17;87.02;99298.56;1654924;86;21015;-72
2022/02/11 06:21:14;;;;;;;24.50;15.80;;;;;;;3.21;86.85;99299.63;1654872;86;21416;-71
2022/02/11 06:23:43;;;;;;;26.20;14.58;;;;;;;3.25;86.65;99295.81;1654641;86;21010;-71
2022/02/11 06:26:10;;;;;;;22.52;13.58;;;;;;;3.28;86.45;99297.98;1654734;86;21515;-72
2022/02/11 06:28:38;;;;;;;22.67;13.48;;;;;;;3.33;86.34;99305.31;1655101;86;21013;-70
2022/02/11 06:31:05;;;;;;;26.52;14.20;;;;;;;3.36;86.12;99297.97;1654948;86;21496;-73
2022/02/11 06:33:35;;;;;;;22.37;13.62;;;;;;;3.40;86.07;99289.50;1654695;85;21436;-71
2022/02/11 06:36:01;;;;;;;21.73;13.85;;;;;;;3.45;85.83;99294.92;1656067;86;21022;-74
2022/02/11 06:38:29;;;;;;;23.12;12.68;;;;;;;3.48;85.70;99288.92;1657495;86;21159;-70
2022/02/11 06:40:57;;;;;;;17.85;11.60;;;;;;;3.53;85.58;99299.80;1657379;86;21552;-73
2022/02/11 06:43:27;;;;;;;23.40;12.50;;;;;;;3.59;85.49;99301.97;1657465;86;32683;-73
2022/02/11 06:45:55;;;;;;;19.48;12.47;;;;;;;3.68;85.36;99299.48;1657444;86;21034;-68
2022/02/11 06:48:25;;;;;;;24.87;12.85;;;;;;;3.74;85.07;99304.34;1657470;86;20875;-73
2022/02/11 06:50:55;;;;;;;18.77;12.68;;;;;;;3.79;84.83;99292.06;1657444;86;20959;-72
2022/02/11 06:53:21;;;;;;;22.73;11.40;;;;;;;3.84;84.67;99292.03;1657205;86;21011;-73
2022/02/11 06:55:50;;;;;;;22.77;12.43;;;;;;;3.91;84.41;99285.48;1657389;86;21074;-68
2022/02/11 06:58:20;;;;;;;22.10;12.30;;;;;;;3.97;84.25;99287.07;1657734;86;20987;-73
2022/02/11 07:00:50;;;;;;;23.40;12.25;;;;;;;4.03;83.99;99283.78;1657405;86;21046;-74
2022/02/11 07:03:19;;;;;;;18.67;11.45;;;;;;;4.06;83.88;99286.73;1632893;86;21032;-72
2022/02/11 07:05:45;;;;;;;17.87;11.85;;;;;;;4.11;83.70;99281.24;1657388;85;20936;-72
2022/02/11 07:08:12;;;;;;;24.12;12.80;;;;;;;4.18;83.39;99296.50;1657385;86;21043;-72
2022/02/11 07:10:39;;;;;;;21.73;12.63;;;;;;;4.25;83.15;99299.70;1657408;86;21077;-71
2022/02/11 07:13:13;;;;;;;25.05;13.58;;;;;;;4.29;83.07;99302.14;1657461;86;21526;-72
2022/02/11 07:15:38;;;;;;;17.67;10.93;;;;;;;4.32;82.86;99298.84;1657190;86;21178;-72
2022/02/11 07:18:08;;;;;;;20.80;12.98;;;;;;;4.34;82.83;99299.38;1657272;86;21042;-71
2022/02/11 07:20:37;;;;;;;21.75;11.70;;;;;;;4.39;82.77;99306.70;1657425;86;21042;-72
2022/02/11 07:23:09;;;;;;;25.02;13.30;;;;;;;4.45;82.73;99312.95;1657712;86;20989;-73
2022/02/11 07:25:39;;;;;;;21.93;12.50;;;;;;;4.48;82.69;99312.38;1657618;86;21034;-73
2022/02/11 07:28:08;;;;;;;18.52;12.15;;;;;;;4.48;82.60;99313.20;1657383;86;21685;-72
2022/02/11 07:30:37;;;;;;;21.23;12.85;;;;;;;4.53;82.26;99315.61;1657483;86;21118;-71
2022/02/11 07:33:04;;;;;;;24.25;12.37;;;;;;;4.55;82.15;99311.52;1657427;85;21007;-71
2022/02/11 07:35:31;;;;;;;22.73;13.15;;;;;;;4.59;82.07;99309.83;1657375;86;21102;-69
2022/02/11 07:38:03;;;;;;;17.90;11.93;;;;;;;4.65;82.08;99308.42;1657629;86;20901;-72
2022/02/11 07:40:32;;;;;;;20.08;11.10;;;;;;;4.68;81.93;99306.48;1657560;86;21075;-73
2022/02/11 07:42:58;;;;;;;23.30;12.07;;;;;;;4.72;81.72;99314.37;1632698;86;20987;-73
2022/02/11 07:45:30;;;;;;;16.55;10.82;;;;;;;4.80;81.98;99312.39;1633766;86;21486;-72
2022/02/11 07:47:58;;;;;;;20.37;12.35;;;;;;;4.93;82.02;99311.48;1657433;85;20931;-73
2022/02/11 07:50:25;;;;;;;18.35;11.90;;;;;;;5.03;81.61;99310.56;1657565;86;21035;-71
2022/02/11 07:52:53;;;;;;;21.90;13.62;;;;;;;5.07;81.11;99306.95;1657553;86;21197;-73
2022/02/11 07:55:25;;;;;;;22.73;13.60;;;;;;;5.10;80.80;99311.05;1657313;86;21011;-71
2022/02/11 07:57:54;;;;;;;20.92;13.10;;;;;;;5.10;80.67;99302.28;1657148;86;20954;-72
2022/02/11 08:00:26;;;;;;;21.48;12.35;;;;;;;5.11;80.63;99310.75;1657623;86;21066;-73
2022/02/11 08:02:53;;;;;;;19.17;12.63;;;;;;;5.10;80.74;99311.84;1657558;86;20951;-73
2022/02/11 08:05:21;;;;;;;20.43;12.73;;;;;;;5.10;80.76;99306.38;1657820;86;21530;-73
2022/02/11 08:07:50;;;;;;;17.87;12.37;;;;;;;5.08;80.76;99303.11;1657460;86;21035;-73
2022/02/11 08:10:23;;;;;;;20.05;13.03;;;;;;;5.03;80.70;99309.20;1657479;86;20998;-73
2022/02/11 08:12:52;;;;;;;21.27;12.82;;;;;;;4.96;80.77;99304.89;1657434;86;20915;-73
2022/02/11 08:15:22;;;;;;;17.77;11.83;;;;;;;4.91;80.88;99305.48;1657555;86;21038;-73
2022/02/11 08:17:53;;;;;;;22.07;12.58;;;;;;;4.84;81.12;99308.00;1657419;86;21517;-73
2022/02/11 08:20:22;;;;;;;20.80;13.50;;;;;;;4.79;81.36;99308.05;1657400;86;20971;-73
2022/02/11 08:22:57;;;;;;;19.00;12.47;;;;;;;4.75;81.65;99310.53;1657473;86;21019;-74
2022/02/11 08:25:26;;;;;;;24.02;12.47;;;;;;;4.72;81.84;99312.47;1657439;86;20963;-73
2022/02/11 08:27:54;;;;;;;20.10;12.58;;;;;;;4.71;82.03;99314.09;1657599;86;21428;-73
2022/02/11 08:30:22;;;;;;;23.25;13.25;;;;;;;4.72;82.28;99317.94;1657561;86;21487;-71
2022/02/11 08:32:49;;;;;;;26.30;14.30;;;;;;;4.76;82.56;99316.78;1657494;85;21034;-73
2022/02/11 08:35:19;;;;;;;23.27;14.58;;;;;;;4.81;82.78;99318.68;1657620;86;20915;-72
2022/02/11 08:37:49;;;;;;;22.27;13.80;;;;;;;4.86;82.80;99328.98;1657624;86;21042;-71
2022/02/11 08:40:18;;;;;;;23.75;13.75;;;;;;;4.87;82.70;99327.91;1657498;86;20911;-72
2022/02/11 08:42:47;;;;;;;21.10;12.98;;;;;;;4.89;82.57;99327.61;1657502;86;21060;-72
2022/02/11 08:45:16;;;;;;;20.32;12.47;;;;;;;4.90;82.49;99336.06;1657371;86;20947;-73
2022/02/11 08:47:43;;;;;;;23.85;14.33;;;;;;;4.91;82.46;99334.16;1657533;86;21023;-72
2022/02/11 08:50:14;;;;;;;23.12;13.50;;;;;;;4.93;82.51;99338.78;1657337;86;21506;-70
2022/02/11 08:52:40;;;;;;;21.82;14.10;;;;;;;4.95;82.46;99344.20;1657312;86;21011;-69
2022/02/11 08:55:09;;;;;;;19.35;13.08;;;;;;;4.97;82.33;99342.02;1657763;86;21580;-73
2022/02/11 08:57:47;;;;;;;23.75;14.25;;;;;;;4.97;82.23;99342.02;1657126;86;21078;-66
2022/02/11 09:00:18;;;;;;;23.83;13.48;;;;;;;4.95;82.10;99348.84;1657444;86;21031;-73
2022/02/11 09:02:46;;;;;;;22.30;13.62;;;;;;;4.93;82.18;99347.77;1657526;86;20991;-71
2022/02/11 09:05:16;;;;;;;26.95;13.98;;;;;;;4.92;82.22;99342.59;1657763;86;21019;-73
2022/02/11 09:07:42;;;;;;;23.10;14.78;;;;;;;4.92;82.38;99346.16;1657493;86;21436;-70
2022/02/11 09:10:11;;;;;;;23.85;13.90;;;;;;;4.91;82.47;99349.17;1657341;86;20962;-73
2022/02/11 09:12:41;;;;;;;26.75;14.95;;;;;;;4.90;82.53;99351.08;1633483;86;20998;-71
2022/02/11 09:15:08;;;;;;;20.72;13.53;;;;;;;4.87;82.63;99347.02;1657348;86;21082;-70
2022/02/11 09:17:34;;;;;;;21.33;12.82;;;;;;;4.88;82.71;99349.17;1657535;86;20960;-68
2022/02/11 09:20:06;;;;;;;24.45;15.45;;;;;;;4.89;82.67;99347.27;1657221;86;21191;-73
2022/02/11 09:22:35;;;;;;;26.05;14.63;;;;;;;4.89;82.75;99348.64;1632576;86;21055;-72
2022/02/11 09:25:06;;;;;;;25.40;14.98;;;;;;;4.90;82.72;99358.45;1657458;86;21062;-72
2022/02/11 09:27:41;;;;;;;24.67;14.90;;;;;;;4.91;82.88;99358.73;1654842;86;21460;-71
2022/02/11 09:30:05;;;;;;;30.72;17.07;;;;;;;4.91;82.94;99352.73;1656550;86;21415;-73
2022/02/11 09:32:35;;;;;;;25.15;14.90;;;;;;;4.91;83.00;99351.91;1657420;85;21007;-70
2022/02/11 09:35:08;;;;;;;26.70;15.03;;;;;;;4.92;83.17;99351.61;1654630;86;20954;-71
2022/02/11 09:37:37;;;;;;;30.82;18.50;;;;;;;4.96;83.27;99354.59;1650058;86;21026;-67
2022/02/11 09:40:12;;;;;;;28.60;15.18;;;;;;;4.99;83.29;99355.38;1628248;86;21035;-71
2022/02/11 09:42:40;;;;;;;27.07;16.40;;;;;;;5.03;83.25;99356.45;1654725;86;21042;-68
2022/02/11 09:45:09;;;;;;;31.30;16.85;;;;;;;5.05;83.29;99358.31;1628169;86;21866;-74
2022/02/11 09:47:37;;;;;;;30.35;16.93;;;;;;;5.04;83.23;99368.99;1654716;86;21094;-72
2022/02/11 09:50:08;;;;;;;26.25;15.80;;;;;;;5.03;83.13;99367.91;1655093;86;20998;-72
2022/02/11 09:52:40;;;;;;;25.97;16.50;;;;;;;4.99;83.10;99363.57;1654762;85;21574;-74
2022/02/11 09:58:09;;;;;;;29.12;17.07;;;;;;;4.93;83.34;99362.00;1654692;86;20939;-74
2022/02/11 10:00:41;;;;;;;28.35;17.57;;;;;;;4.94;83.56;99369.90;1654527;86;21535;-69
2022/02/11 10:03:29;;;;;;;28.07;17.25;;;;;;;4.95;83.64;99367.96;1654814;86;21538;-72
2022/02/11 10:06:05;;;;;;;29.75;17.82;;;;;;;4.94;83.76;99367.70;1654881;86;21031;-72
2022/02/11 10:08:37;;;;;;;36.25;17.75;;;;;;;4.94;83.92;99373.17;1654704;86;20915;-72
2022/02/11 10:11:06;;;;;;;34.70;18.32;;;;;;;4.94;84.05;99380.00;1654742;86;21145;-73
2022/02/11 10:13:41;;;;;;;33.30;18.40;;;;;;;4.93;84.20;99384.63;1654673;86;20959;-72
2022/02/11 10:16:16;;;;;;;33.20;17.00;;;;;;;4.94;84.40;99390.38;1654874;86;21579;-72
2022/02/11 10:18:48;;;;;;;33.55;18.90;;;;;;;4.94;84.52;99389.02;1654929;86;20959;-74
2022/02/11 10:21:23;;;;;;;35.85;18.82;;;;;;;4.96;84.71;99392.28;1628580;86;20951;-74
2022/02/11 10:23:54;;;;;;;34.18;20.23;;;;;;;4.97;84.82;99397.99;1654910;86;21524;-71
2022/02/11 10:26:25;;;;;;;38.58;19.60;;;;;;;4.95;84.98;99400.19;1654748;86;20991;-72
2022/02/11 10:28:56;;;;;;;43.02;21.30;;;;;;;4.93;85.22;99391.45;1655009;86;21011;-74
2022/02/11 10:31:33;;;;;;;36.58;18.65;;;;;;;4.95;85.61;99403.46;1654654;85;21497;-67
2022/02/11 10:34:14;;;;;;;36.85;19.55;;;;;;;4.92;85.84;99402.12;1653995;86;21071;-73
2022/02/11 10:36:45;;;;;;;29.82;18.55;;;;;;;4.95;86.17;99403.46;1651191;85;21528;-71
2022/02/11 10:39:23;;;;;;;34.08;18.62;;;;;;;4.96;86.21;99407.84;1650587;86;21559;-74
2022/02/11 10:42:06;;;;;;;32.30;18.70;;;;;;;4.96;86.34;99403.74;1654721;86;21098;-71
2022/02/11 10:44:36;;;;;;;36.73;18.65;;;;;;;4.99;86.47;99405.36;1654483;86;21508;-73
2022/02/11 10:47:09;;;;;;;32.98;19.32;;;;;;;5.04;86.54;99401.77;1654966;86;20915;-73
2022/02/11 10:49:46;;;;;;;32.30;18.87;;;;;;;5.05;86.54;99406.11;1654729;86;21547;-68
2022/02/11 10:52:34;;;;;;;33.75;20.05;;;;;;;5.08;86.59;99411.58;1654624;86;20860;-73
2022/02/11 10:54:59;;;;;;;33.15;20.62;;;;;;;5.10;86.69;99411.53;1654559;86;20999;-73
2022/02/11 10:57:33;;;;;;;31.25;18.73;;;;;;;5.14;86.77;99407.69;1654700;86;21029;-75
2022/02/11 11:00:00;;;;;;;34.43;20.10;;;;;;;5.19;86.74;99409.55;1654409;86;21045;-72
2022/02/11 11:02:31;;;;;;;35.78;20.50;;;;;;;5.19;86.52;99414.47;1654488;86;21046;-68
2022/02/11 11:05:02;;;;;;;40.20;20.65;;;;;;;5.18;86.42;99410.66;1654622;86;21057;-74
2022/02/11 11:07:35;;;;;;;31.97;18.48;;;;;;;5.19;86.52;99420.48;1626038;86;20963;-74
2022/02/11 11:10:08;;;;;;;46.53;22.65;;;;;;;5.20;86.57;99416.66;1654838;86;20999;-72
2022/02/11 11:12:53;;;;;;;39.48;22.50;;;;;;;5.19;86.54;99413.65;1628551;86;21468;-72
2022/02/11 11:15:17;;;;;;;39.10;23.55;;;;;;;5.18;86.57;99418.31;1654274;86;21180;-70
2022/02/11 11:17:49;;;;;;;34.00;21.02;;;;;;;5.19;86.65;99422.67;1607124;86;21003;-73
2022/02/11 11:20:20;;;;;;;32.10;20.15;;;;;;;5.17;86.65;99422.13;1652836;86;20970;-73
2022/02/11 11:23:04;;;;;;;35.30;19.10;;;;;;;5.16;86.61;99421.05;1654254;86;21498;-72
2022/02/11 11:26:01;;;;;;;35.10;21.53;;;;;;;5.15;86.80;99426.27;1638226;85;21067;-71
2022/02/11 11:28:50;;;;;;;41.42;21.15;;;;;;;5.17;87.05;99429.53;1680384;84;21782;-73
2022/02/11 11:31:31;;;;;;;38.02;19.98;;;;;;;5.20;87.26;99428.38;1654921;84;21553;-72
2022/02/11 11:34:24;;;;;;;35.80;18.92;;;;;;;5.25;87.27;99427.55;1679553;85;21059;-71
2022/02/11 11:36:53;;;;;;;36.42;18.62;;;;;;;5.30;87.43;99421.22;1681244;84;21479;-69
2022/02/11 11:39:23;;;;;;;38.42;21.15;;;;;;;5.36;87.36;99420.88;1682500;84;21058;-72
2022/02/11 11:42:15;;;;;;;38.58;20.17;;;;;;;5.44;87.45;99423.53;1683348;84;22194;-69
2022/02/11 11:44:53;;;;;;;37.15;20.40;;;;;;;5.51;87.52;99414.99;1693376;84;21518;-65
2022/02/11 11:47:38;;;;;;;36.98;20.80;;;;;;;5.58;87.15;99426.95;1693778;84;21082;-70
2022/02/11 11:50:03;;;;;;;31.33;17.25;;;;;;;5.50;86.66;99424.30;1694831;84;21024;-72
2022/02/11 11:52:44;;;;;;;33.63;17.73;;;;;;;5.50;86.83;99426.22;1695103;84;21023;-70
2022/02/11 11:55:20;;;;;;;22.02;13.55;;;;;;;5.52;86.66;99424.02;1694176;84;21175;-73
2022/02/11 11:57:48;;;;;;;26.17;12.55;;;;;;;5.49;85.74;99430.89;1677788;85;21035;-68
2022/02/11 12:00:37;;;;;;;17.90;11.55;;;;;;;5.42;85.56;99433.13;1681848;84;21042;-67
2022/02/11 12:03:05;;;;;;;22.40;13.80;;;;;;;5.38;85.39;99431.52;1695807;84;21065;-71
2022/02/11 12:05:45;;;;;;;23.07;12.93;;;;;;;5.38;85.42;99434.80;1668898;84;20971;-72
2022/02/11 12:08:19;;;;;;;22.15;14.78;;;;;;;5.39;85.39;99437.23;1692388;84;21175;-71
2022/02/11 12:10:52;;;;;;;23.07;13.55;;;;;;;5.42;85.19;99433.13;1689674;83;21060;-67
2022/02/11 12:13:19;;;;;;;27.30;13.00;;;;;;;5.44;85.10;99437.19;1625031;86;21591;-72
2022/02/11 12:15:48;;;;;;;22.00;13.62;;;;;;;5.48;84.98;99438.80;1676575;85;21046;-70
2022/02/11 12:18:17;;;;;;;21.10;13.18;;;;;;;5.50;84.70;99441.25;1677444;85;21040;-73
2022/02/11 12:20:45;;;;;;;19.50;11.10;;;;;;;5.50;84.27;99442.62;1677876;85;22009;-72
2022/02/11 12:28:46;;;;;;;19.90;12.40;;;;;;;5.55;83.58;99446.67;1677827;85;21511;-72
2022/02/11 12:31:26;;;;;;;20.57;12.13;;;;;;;5.56;83.67;99451.05;1678806;84;21011;-73
2022/02/11 12:34:19;;;;;;;18.62;11.50;;;;;;;5.55;83.37;99445.30;1679452;85;20908;-72
2022/02/11 12:36:48;;;;;;;20.95;12.00;;;;;;;5.57;83.36;99452.13;1679988;84;21517;-72
2022/02/11 12:39:21;;;;;;;19.73;11.63;;;;;;;5.57;82.92;99449.94;1696050;84;21113;-69
2022/02/11 12:41:51;;;;;;;18.80;11.75;;;;;;;5.55;82.36;99453.50;1703648;83;20948;-74
2022/02/11 12:44:29;;;;;;;16.70;10.90;;;;;;;5.57;82.12;99452.67;1721980;83;21166;-72
2022/02/11 12:46:59;;;;;;;17.10;10.25;;;;;;;5.59;81.94;99460.86;1722450;83;21537;-74
2022/02/11 12:49:35;;;;;;;18.00;11.45;;;;;;;5.64;81.21;99453.70;1715708;83;21103;-73
2022/02/11 12:52:06;;;;;;;21.42;12.45;;;;;;;5.67;81.37;99462.14;1696867;84;21072;-73
2022/02/11 12:54:43;;;;;;;18.70;10.08;;;;;;;5.71;80.76;99461.02;1698825;84;21035;-73
2022/02/11 12:57:13;;;;;;;13.03;7.05;;;;;;;5.70;80.11;99458.83;1671763;84;22170;-74
2022/02/11 12:59:49;;;;;;;12.45;6.08;;;;;;;5.66;78.12;99457.78;1695506;84;21567;-74
2022/02/11 13:02:28;;;;;;;15.48;6.85;;;;;;;5.57;76.91;99460.33;1699415;83;21075;-71
2022/02/11 13:05:15;;;;;;;15.43;7.67;;;;;;;5.45;76.71;99458.52;1700006;83;21015;-72
2022/02/11 13:07:49;;;;;;;9.93;6.20;;;;;;;5.53;77.01;99455.70;1696828;84;20890;-74
2022/02/11 13:10:28;;;;;;;9.48;5.87;;;;;;;5.70;77.18;99460.73;1696056;83;21107;-71
2022/02/11 13:12:58;;;;;;;13.38;6.72;;;;;;;5.79;77.12;99459.55;1702080;84;21550;-67
2022/02/11 13:15:31;;;;;;;9.30;5.58;;;;;;;5.83;76.51;99464.16;1699476;84;21075;-72
2022/02/11 13:18:21;;;;;;;10.32;6.33;;;;;;;5.77;75.81;99465.31;1693476;84;21114;-74
2022/02/11 13:21:06;;;;;;;9.88;5.42;;;;;;;5.69;75.89;99460.48;1698138;84;21047;-72
2022/02/11 13:23:35;;;;;;;18.15;8.60;;;;;;;5.59;75.63;99462.77;1699346;84;21043;-72
2022/02/11 13:26:14;;;;;;;19.90;10.68;;;;;;;5.51;75.93;99472.96;1699472;84;21130;-72
2022/02/11 13:28:48;;;;;;;19.10;8.95;;;;;;;5.49;76.22;99478.72;1692221;84;21009;-73
2022/02/11 13:31:21;;;;;;;13.18;7.80;;;;;;;5.47;76.23;99476.27;1695449;84;21062;-73
2022/02/11 13:34:05;;;;;;;18.07;8.73;;;;;;;5.44;76.02;99480.92;1698946;83;21000;-72
2022/02/11 13:36:33;;;;;;;;;;;;;;;5.41;76.25;99477.40;1701858;84;21622;-72
2022/02/11 13:39:03;;;;;;;16.93;8.45;;;;;;;5.45;76.41;99481.75;1697026;84;20145;-72
2022/02/11 13:41:39;;;;;;;20.08;9.18;;;;;;;5.47;76.65;99490.48;1699793;83;21067;-72
2022/02/11 13:44:06;;;;;;;15.47;7.93;;;;;;;5.53;76.39;99485.77;1692957;84;21024;-73
2022/02/11 13:46:37;;;;;;;19.17;8.55;;;;;;;5.71;76.73;99480.16;1673673;84;21427;-74
2022/02/11 13:49:07;;;;;;;14.98;7.92;;;;;;;6.09;76.54;99474.85;1699354;83;21056;-72
2022/02/11 13:51:40;;;;;;;17.40;8.95;;;;;;;6.64;76.22;99478.84;1700042;84;21953;-73
2022/02/11 13:54:17;;;;;;;14.73;8.45;;;;;;;7.24;74.81;99476.06;1699541;84;21023;-74
2022/02/11 13:56:49;;;;;;;14.58;7.85;;;;;;;7.84;72.48;99484.65;1699296;84;21048;-73
2022/02/11 13:59:32;;;;;;;12.20;7.05;;;;;;;8.31;70.01;99474.72;1698753;84;21055;-71
2022/02/11 14:02:09;;;;;;;11.68;6.95;;;;;;;8.60;69.01;99477.14;1695646;83;21056;-74
2022/02/11 14:04:37;;;;;;;13.48;7.92;;;;;;;9.06;67.75;99476.43;1698704;84;20972;-72
2022/02/11 14:07:05;;;;;;;10.32;6.17;;;;;;;9.45;66.49;99483.16;1673557;84;20981;-73
2022/02/11 14:09:39;;;;;;;10.55;6.25;;;;;;;9.77;64.24;99481.83;1700134;84;21562;-72
2022/02/11 14:12:30;;;;;;;10.50;6.25;;;;;;;9.98;62.94;99484.83;1700709;84;21043;-72
2022/02/11 14:15:03;;;;;;;10.60;6.42;;;;;;;10.20;62.38;99494.15;1694730;84;21102;-71
2022/02/11 14:17:31;;;;;;;8.63;5.40;;;;;;;10.56;61.69;99499.81;1696682;84;21285;-70
2022/02/11 14:19:58;;;;;;;8.90;5.97;;;;;;;10.87;60.36;99504.39;1695218;83;21016;-72
2022/02/11 14:22:30;;;;;;;8.78;5.22;;;;;;;11.03;57.95;99505.30;1695617;84;21114;-71
2022/02/11 14:24:59;;;;;;;7.12;3.35;;;;;;;10.93;54.62;99507.25;1672493;84;21083;-74
2022/02/11 14:27:29;;;;;;;5.25;3.10;;;;;;;10.52;54.22;99501.02;1698439;84;21007;-73
2022/02/11 14:29:56;;;;;;;5.15;2.72;;;;;;;10.09;53.39;99501.08;1699353;83;21122;-72
2022/02/11 14:32:29;;;;;;;5.33;2.92;;;;;;;9.69;53.60;99502.64;1692524;83;21103;-74
2022/02/11 14:34:59;;;;;;;8.70;5.15;;;;;;;9.49;54.29;99515.80;1693381;84;21527;-73
2022/02/11 14:37:29;;;;;;;9.13;4.25;;;;;;;9.23;52.87;99526.03;1691671;83;21043;-73
2022/02/11 14:40:02;;;;;;;6.65;3.83;;;;;;;8.60;54.66;99528.50;1705464;83;20956;-75
2022/02/11 14:42:31;;;;;;;6.87;3.55;;;;;;;8.15;56.47;99543.05;1718099;83;21133;-73
2022/02/11 14:44:58;;;;;;;7.20;3.27;;;;;;;7.68;57.40;99544.44;1718676;83;21020;-77
2022/02/11 14:47:31;;;;;;;5.50;2.70;;;;;;;7.18;58.21;99552.05;1719325;83;21061;-72
2022/02/11 14:50:06;;;;;;;3.70;2.00;;;;;;;6.80;59.67;99549.30;1720139;83;21537;-73
2022/02/11 14:52:47;;;;;;;2.98;1.52;;;;;;;6.46;60.80;99544.23;1717734;83;21098;-72
2022/02/11 14:55:15;;;;;;;3.45;2.40;;;;;;;6.18;61.11;99544.80;1718834;83;22018;-74
2022/02/11 14:57:42;;;;;;;6.15;3.05;;;;;;;5.93;61.84;99552.69;1718855;83;21669;-69
2022/02/11 15:00:14;;;;;;;6.17;2.87;;;;;;;5.71;62.31;99553.98;1719562;83;21128;-71
2022/02/11 15:02:45;;;;;;;7.12;3.25;;;;;;;5.52;62.65;99555.22;1719377;83;21477;-73
2022/02/11 15:05:14;;;;;;;7.47;3.30;;;;;;;5.34;63.45;99556.98;1698660;83;21037;-73
2022/02/11 15:07:44;;;;;;;4.05;2.50;;;;;;;5.20;64.15;99562.25;1719137;83;21152;-74
2022/02/11 15:10:11;;;;;;;6.90;2.77;;;;;;;5.06;64.52;99564.81;1719415;83;21049;-71
2022/02/11 15:12:43;;;;;;;7.37;2.02;;;;;;;4.93;64.98;99572.27;1719851;83;21087;-73
2022/02/11 15:15:12;;;;;;;5.92;2.87;;;;;;;4.80;65.06;99571.77;1719774;83;20947;-74
2022/02/11 15:17:47;;;;;;;5.28;2.92;;;;;;;4.68;65.39;99570.72;1719894;83;20902;-73
2022/02/11 15:20:16;;;;;;;5.87;2.85;;;;;;;4.58;65.72;99570.22;1719754;83;21139;-76
2022/02/11 15:22:44;;;;;;;8.85;3.15;;;;;;;4.46;66.19;99571.89;1718673;83;20958;-74
2022/02/11 15:25:16;;;;;;;5.40;3.00;;;;;;;4.42;66.59;99570.01;1719870;83;21038;-69
2022/02/11 15:27:51;;;;;;;6.50;3.37;;;;;;;4.35;66.95;99574.39;1720119;83;20930;-75
2022/02/11 15:30:23;;;;;;;8.55;3.35;;;;;;;4.26;67.37;99579.59;1719392;82;21028;-73